sensor_id;sensor_type;location;lat;lon;timestamp;temperature;humidity
71173;DHT22;58875;51.996;4.504;2023-06-14T00:00:13;20.15;56.20
71173;DHT22;58875;51.996;4.504;2023-06-14T00:02:40;20.15;56.14
71173;DHT22;58875;51.996;4.504;2023-06-14T00:05:07;20.03;56.75
71173;DHT22;58875;51.996;4.504;2023-06-14T00:07:41;20.00;56.86
71173;DHT22;58875;51.996;4.504;2023-06-14T00:10:11;19.97;57.03
71173;DHT22;58875;51.996;4.504;2023-06-14T00:12:38;19.90;57.24
71173;DHT22;58875;51.996;4.504;2023-06-14T00:15:04;19.81;57.78
71173;DHT22;58875;51.996;4.504;2023-06-14T00:17:31;19.84;57.83
71173;DHT22;58875;51.996;4.504;2023-06-14T00:19:59;19.80;58.11
71173;DHT22;58875;51.996;4.504;2023-06-14T00:22:25;19.71;58.33
71173;DHT22;58875;51.996;4.504;2023-06-14T00:24:54;19.71;58.34
71173;DHT22;58875;51.996;4.504;2023-06-14T00:27:19;19.70;58.51
71173;DHT22;58875;51.996;4.504;2023-06-14T00:29:45;19.66;58.82
71173;DHT22;58875;51.996;4.504;2023-06-14T00:32:10;19.71;58.79
71173;DHT22;58875;51.996;4.504;2023-06-14T00:34:36;19.66;58.94
71173;DHT22;58875;51.996;4.504;2023-06-14T00:37:02;19.66;59.11
71173;DHT22;58875;51.996;4.504;2023-06-14T00:39:27;19.70;59.08
71173;DHT22;58875;51.996;4.504;2023-06-14T00:41:53;19.74;59.17
71173;DHT22;58875;51.996;4.504;2023-06-14T00:44:18;19.69;59.32
71173;DHT22;58875;51.996;4.504;2023-06-14T00:46:47;19.64;59.93
71173;DHT22;58875;51.996;4.504;2023-06-14T00:49:17;19.60;60.07
71173;DHT22;58875;51.996;4.504;2023-06-14T00:51:43;19.59;59.88
71173;DHT22;58875;51.996;4.504;2023-06-14T00:54:09;19.49;60.24
71173;DHT22;58875;51.996;4.504;2023-06-14T00:56:36;19.46;60.39
71173;DHT22;58875;51.996;4.504;2023-06-14T00:59:02;19.52;60.39
71173;DHT22;58875;51.996;4.504;2023-06-14T01:01:29;19.50;60.22
71173;DHT22;58875;51.996;4.504;2023-06-14T01:03:58;19.42;60.27
71173;DHT22;58875;51.996;4.504;2023-06-14T01:09:18;19.23;60.74
71173;DHT22;58875;51.996;4.504;2023-06-14T01:14:18;19.25;60.70
71173;DHT22;58875;51.996;4.504;2023-06-14T01:16:44;19.26;60.52
71173;DHT22;58875;51.996;4.504;2023-06-14T01:19:13;19.25;60.85
71173;DHT22;58875;51.996;4.504;2023-06-14T01:21:39;19.23;60.65
71173;DHT22;58875;51.996;4.504;2023-06-14T01:24:08;19.16;60.59
71173;DHT22;58875;51.996;4.504;2023-06-14T01:26:35;19.18;60.70
71173;DHT22;58875;51.996;4.504;2023-06-14T01:29:03;19.19;60.40
71173;DHT22;58875;51.996;4.504;2023-06-14T01:31:30;19.16;61.15
71173;DHT22;58875;51.996;4.504;2023-06-14T01:34:05;19.12;61.32
71173;DHT22;58875;51.996;4.504;2023-06-14T01:36:31;19.05;61.90
71173;DHT22;58875;51.996;4.504;2023-06-14T01:38:59;18.95;62.59
71173;DHT22;58875;51.996;4.504;2023-06-14T01:41:26;18.87;62.71
71173;DHT22;58875;51.996;4.504;2023-06-14T01:43:52;18.79;62.38
71173;DHT22;58875;51.996;4.504;2023-06-14T01:46:20;18.72;61.24
71173;DHT22;58875;51.996;4.504;2023-06-14T01:48:45;18.71;62.03
71173;DHT22;58875;51.996;4.504;2023-06-14T01:51:11;18.65;61.64
71173;DHT22;58875;51.996;4.504;2023-06-14T01:53:36;18.61;62.55
71173;DHT22;58875;51.996;4.504;2023-06-14T01:56:02;18.57;62.66
71173;DHT22;58875;51.996;4.504;2023-06-14T01:58:28;18.48;62.28
71173;DHT22;58875;51.996;4.504;2023-06-14T02:00:54;18.45;62.30
71173;DHT22;58875;51.996;4.504;2023-06-14T02:03:21;18.43;62.12
71173;DHT22;58875;51.996;4.504;2023-06-14T02:05:46;18.45;61.90
71173;DHT22;58875;51.996;4.504;2023-06-14T02:08:12;18.40;61.95
71173;DHT22;58875;51.996;4.504;2023-06-14T02:10:38;18.40;62.19
71173;DHT22;58875;51.996;4.504;2023-06-14T02:13:03;18.36;62.06
71173;DHT22;58875;51.996;4.504;2023-06-14T02:15:29;18.33;61.59
71173;DHT22;58875;51.996;4.504;2023-06-14T02:18:00;18.30;62.03
71173;DHT22;58875;51.996;4.504;2023-06-14T02:20:27;18.23;61.70
71173;DHT22;58875;51.996;4.504;2023-06-14T02:22:52;18.17;61.26
71173;DHT22;58875;51.996;4.504;2023-06-14T02:25:18;18.16;61.59
71173;DHT22;58875;51.996;4.504;2023-06-14T02:27:43;18.12;61.07
71173;DHT22;58875;51.996;4.504;2023-06-14T02:30:09;18.12;62.51
71173;DHT22;58875;51.996;4.504;2023-06-14T02:32:35;18.06;62.28
71173;DHT22;58875;51.996;4.504;2023-06-14T02:35:01;18.03;63.03
71173;DHT22;58875;51.996;4.504;2023-06-14T02:37:27;17.97;62.07
71173;DHT22;58875;51.996;4.504;2023-06-14T02:39:53;17.90;61.82
71173;DHT22;58875;51.996;4.504;2023-06-14T02:42:18;17.86;61.60
71173;DHT22;58875;51.996;4.504;2023-06-14T02:44:44;17.82;61.77
71173;DHT22;58875;51.996;4.504;2023-06-14T02:47:10;17.85;61.76
71173;DHT22;58875;51.996;4.504;2023-06-14T02:49:36;17.85;61.81
71173;DHT22;58875;51.996;4.504;2023-06-14T02:52:04;17.81;61.51
71173;DHT22;58875;51.996;4.504;2023-06-14T02:54:30;17.78;61.64
71173;DHT22;58875;51.996;4.504;2023-06-14T02:56:56;17.76;61.11
71173;DHT22;58875;51.996;4.504;2023-06-14T02:59:21;17.76;61.54
71173;DHT22;58875;51.996;4.504;2023-06-14T03:01:50;17.73;61.09
71173;DHT22;58875;51.996;4.504;2023-06-14T03:04:15;17.76;61.36
71173;DHT22;58875;51.996;4.504;2023-06-14T03:06:41;17.73;61.47
71173;DHT22;58875;51.996;4.504;2023-06-14T03:09:09;17.68;61.54
71173;DHT22;58875;51.996;4.504;2023-06-14T03:11:35;17.71;60.69
71173;DHT22;58875;51.996;4.504;2023-06-14T03:14:01;17.66;61.07
71173;DHT22;58875;51.996;4.504;2023-06-14T03:16:29;17.65;61.70
71173;DHT22;58875;51.996;4.504;2023-06-14T03:18:55;17.63;62.58
71173;DHT22;58875;51.996;4.504;2023-06-14T03:21:21;17.59;62.06
71173;DHT22;58875;51.996;4.504;2023-06-14T03:23:47;17.56;61.71
71173;DHT22;58875;51.996;4.504;2023-06-14T03:26:14;17.55;61.84
71173;DHT22;58875;51.996;4.504;2023-06-14T03:28:47;17.51;62.36
71173;DHT22;58875;51.996;4.504;2023-06-14T03:31:13;17.51;62.39
71173;DHT22;58875;51.996;4.504;2023-06-14T03:33:39;17.51;63.01
71173;DHT22;58875;51.996;4.504;2023-06-14T03:36:05;17.43;62.98
71173;DHT22;58875;51.996;4.504;2023-06-14T03:38:32;17.41;62.97
71173;DHT22;58875;51.996;4.504;2023-06-14T03:40:58;17.38;62.51
71173;DHT22;58875;51.996;4.504;2023-06-14T03:43:23;17.36;62.71
71173;DHT22;58875;51.996;4.504;2023-06-14T03:45:49;17.41;63.39
71173;DHT22;58875;51.996;4.504;2023-06-14T03:48:15;17.39;62.95
71173;DHT22;58875;51.996;4.504;2023-06-14T03:50:40;17.34;62.01
71173;DHT22;58875;51.996;4.504;2023-06-14T03:53:08;17.36;62.55
71173;DHT22;58875;51.996;4.504;2023-06-14T03:55:34;17.43;63.15
71173;DHT22;58875;51.996;4.504;2023-06-14T03:58:00;17.39;61.87
71173;DHT22;58875;51.996;4.504;2023-06-14T04:00:26;17.43;61.73
71173;DHT22;58875;51.996;4.504;2023-06-14T04:02:52;17.46;62.78
71173;DHT22;58875;51.996;4.504;2023-06-14T04:05:19;17.43;61.94
71173;DHT22;58875;51.996;4.504;2023-06-14T04:07:46;17.45;61.75
71173;DHT22;58875;51.996;4.504;2023-06-14T04:10:15;17.46;61.22
71173;DHT22;58875;51.996;4.504;2023-06-14T04:12:41;17.51;61.52
71173;DHT22;58875;51.996;4.504;2023-06-14T04:15:08;17.53;61.60
71173;DHT22;58875;51.996;4.504;2023-06-14T04:17:37;17.55;61.81
71173;DHT22;58875;51.996;4.504;2023-06-14T04:20:03;17.43;60.83
71173;DHT22;58875;51.996;4.504;2023-06-14T04:22:30;17.52;60.64
71173;DHT22;58875;51.996;4.504;2023-06-14T04:24:57;17.58;60.16
71173;DHT22;58875;51.996;4.504;2023-06-14T04:27:23;17.61;59.76
71173;DHT22;58875;51.996;4.504;2023-06-14T04:29:53;17.71;59.53
71173;DHT22;58875;51.996;4.504;2023-06-14T04:32:31;17.78;59.29
71173;DHT22;58875;51.996;4.504;2023-06-14T04:35:00;17.81;59.03
71173;DHT22;58875;51.996;4.504;2023-06-14T04:37:32;17.82;59.07
71173;DHT22;58875;51.996;4.504;2023-06-14T04:40:01;17.85;59.11
71173;DHT22;58875;51.996;4.504;2023-06-14T04:42:30;17.89;58.81
71173;DHT22;58875;51.996;4.504;2023-06-14T04:44:57;17.99;59.08
71173;DHT22;58875;51.996;4.504;2023-06-14T04:47:23;18.09;58.92
71173;DHT22;58875;51.996;4.504;2023-06-14T04:49:50;18.00;58.34
71173;DHT22;58875;51.996;4.504;2023-06-14T04:52:19;18.00;58.30
71173;DHT22;58875;51.996;4.504;2023-06-14T04:54:46;18.04;58.50
71173;DHT22;58875;51.996;4.504;2023-06-14T04:57:12;18.00;58.97
71173;DHT22;58875;51.996;4.504;2023-06-14T04:59:43;18.04;58.51
71173;DHT22;58875;51.996;4.504;2023-06-14T05:02:10;18.13;58.65
71173;DHT22;58875;51.996;4.504;2023-06-14T05:04:37;18.14;58.82
71173;DHT22;58875;51.996;4.504;2023-06-14T05:07:08;18.18;58.34
71173;DHT22;58875;51.996;4.504;2023-06-14T05:09:35;18.24;58.08
71173;DHT22;58875;51.996;4.504;2023-06-14T05:12:01;18.22;58.38
71173;DHT22;58875;51.996;4.504;2023-06-14T05:14:27;18.24;58.43
71173;DHT22;58875;51.996;4.504;2023-06-14T05:16:52;18.31;58.20
71173;DHT22;58875;51.996;4.504;2023-06-14T05:19:19;18.34;58.20
71173;DHT22;58875;51.996;4.504;2023-06-14T05:21:47;18.41;57.96
71173;DHT22;58875;51.996;4.504;2023-06-14T05:24:13;18.38;57.40
71173;DHT22;58875;51.996;4.504;2023-06-14T05:26:39;18.36;57.55
71173;DHT22;58875;51.996;4.504;2023-06-14T05:29:05;18.41;57.61
71173;DHT22;58875;51.996;4.504;2023-06-14T05:31:30;18.54;57.38
71173;DHT22;58875;51.996;4.504;2023-06-14T05:33:56;18.58;56.65
71173;DHT22;58875;51.996;4.504;2023-06-14T05:36:25;18.62;57.08
71173;DHT22;58875;51.996;4.504;2023-06-14T05:38:51;18.69;56.15
71173;DHT22;58875;51.996;4.504;2023-06-14T05:41:24;18.84;56.11
71173;DHT22;58875;51.996;4.504;2023-06-14T05:43:52;18.88;55.66
71173;DHT22;58875;51.996;4.504;2023-06-14T05:46:18;18.95;55.15
71173;DHT22;58875;51.996;4.504;2023-06-14T05:48:48;19.01;55.31
71173;DHT22;58875;51.996;4.504;2023-06-14T05:51:14;19.15;54.55
71173;DHT22;58875;51.996;4.504;2023-06-14T05:53:40;19.08;53.77
71173;DHT22;58875;51.996;4.504;2023-06-14T05:56:05;18.96;53.81
71173;DHT22;58875;51.996;4.504;2023-06-14T05:58:31;18.96;53.75
71173;DHT22;58875;51.996;4.504;2023-06-14T06:00:56;19.02;54.20
71173;DHT22;58875;51.996;4.504;2023-06-14T06:03:23;19.06;54.24
71173;DHT22;58875;51.996;4.504;2023-06-14T06:05:48;19.23;54.28
71173;DHT22;58875;51.996;4.504;2023-06-14T06:08:14;19.45;52.95
71173;DHT22;58875;51.996;4.504;2023-06-14T06:13:07;19.66;52.36
71173;DHT22;58875;51.996;4.504;2023-06-14T06:15:33;19.77;52.58
71173;DHT22;58875;51.996;4.504;2023-06-14T06:17:58;20.05;51.97
71173;DHT22;58875;51.996;4.504;2023-06-14T06:20:24;20.29;51.38
71173;DHT22;58875;51.996;4.504;2023-06-14T06:22:54;20.61;51.94
71173;DHT22;58875;51.996;4.504;2023-06-14T06:25:19;20.52;50.15
71173;DHT22;58875;51.996;4.504;2023-06-14T06:27:45;20.49;49.94
71173;DHT22;58875;51.996;4.504;2023-06-14T06:30:11;20.57;49.98
71173;DHT22;58875;51.996;4.504;2023-06-14T06:32:37;20.63;50.03
71173;DHT22;58875;51.996;4.504;2023-06-14T06:35:03;20.69;49.46
71173;DHT22;58875;51.996;4.504;2023-06-14T06:37:31;20.45;49.53
71173;DHT22;58875;51.996;4.504;2023-06-14T06:39:57;20.72;50.12
71173;DHT22;58875;51.996;4.504;2023-06-14T06:42:23;21.04;48.89
71173;DHT22;58875;51.996;4.504;2023-06-14T06:44:48;21.28;49.72
71173;DHT22;58875;51.996;4.504;2023-06-14T06:47:14;21.55;46.88
71173;DHT22;58875;51.996;4.504;2023-06-14T06:49:39;21.75;47.15
71173;DHT22;58875;51.996;4.504;2023-06-14T06:52:06;21.71;47.74
71173;DHT22;58875;51.996;4.504;2023-06-14T06:54:33;21.77;47.25
71173;DHT22;58875;51.996;4.504;2023-06-14T06:57:00;21.89;47.24
71173;DHT22;58875;51.996;4.504;2023-06-14T06:59:26;21.98;47.65
71173;DHT22;58875;51.996;4.504;2023-06-14T07:01:53;22.26;46.82
71173;DHT22;58875;51.996;4.504;2023-06-14T07:04:18;21.92;47.59
71173;DHT22;58875;51.996;4.504;2023-06-14T07:06:46;22.25;46.71
71173;DHT22;58875;51.996;4.504;2023-06-14T07:09:12;22.43;46.94
71173;DHT22;58875;51.996;4.504;2023-06-14T07:11:42;22.70;44.42
71173;DHT22;58875;51.996;4.504;2023-06-14T07:14:07;22.80;43.53
71173;DHT22;58875;51.996;4.504;2023-06-14T07:16:33;22.10;44.89
71173;DHT22;58875;51.996;4.504;2023-06-14T07:18:59;22.22;45.54
71173;DHT22;58875;51.996;4.504;2023-06-14T07:21:26;22.59;45.08
71173;DHT22;58875;51.996;4.504;2023-06-14T07:23:53;22.88;44.47
71173;DHT22;58875;51.996;4.504;2023-06-14T07:26:19;22.84;44.09
71173;DHT22;58875;51.996;4.504;2023-06-14T07:28:44;22.52;45.63
71173;DHT22;58875;51.996;4.504;2023-06-14T07:31:10;22.67;44.89
71173;DHT22;58875;51.996;4.504;2023-06-14T07:33:37;23.04;43.84
71173;DHT22;58875;51.996;4.504;2023-06-14T07:36:03;23.05;44.16
71173;DHT22;58875;51.996;4.504;2023-06-14T07:38:29;22.86;44.11
71173;DHT22;58875;51.996;4.504;2023-06-14T07:40:55;23.07;44.97
71173;DHT22;58875;51.996;4.504;2023-06-14T07:43:20;23.38;42.82
71173;DHT22;58875;51.996;4.504;2023-06-14T07:45:46;23.35;43.50
71173;DHT22;58875;51.996;4.504;2023-06-14T07:48:11;23.54;42.44
71173;DHT22;58875;51.996;4.504;2023-06-14T07:50:37;23.86;41.96
71173;DHT22;58875;51.996;4.504;2023-06-14T07:53:02;24.13;41.88
71173;DHT22;58875;51.996;4.504;2023-06-14T07:55:28;24.44;41.31
71173;DHT22;58875;51.996;4.504;2023-06-14T07:57:54;24.37;40.35
71173;DHT22;58875;51.996;4.504;2023-06-14T08:00:20;24.28;41.46
71173;DHT22;58875;51.996;4.504;2023-06-14T08:02:46;24.28;41.56
71173;DHT22;58875;51.996;4.504;2023-06-14T08:05:12;24.34;41.49
71173;DHT22;58875;51.996;4.504;2023-06-14T08:07:39;24.55;40.35
71173;DHT22;58875;51.996;4.504;2023-06-14T08:10:05;24.77;40.79
71173;DHT22;58875;51.996;4.504;2023-06-14T08:12:31;24.95;39.75
71173;DHT22;58875;51.996;4.504;2023-06-14T08:14:57;24.75;40.21
71173;DHT22;58875;51.996;4.504;2023-06-14T08:17:23;24.63;41.21
71173;DHT22;58875;51.996;4.504;2023-06-14T08:19:48;24.79;40.43
71173;DHT22;58875;51.996;4.504;2023-06-14T08:22:14;25.06;40.29
71173;DHT22;58875;51.996;4.504;2023-06-14T08:24:39;24.99;40.06
71173;DHT22;58875;51.996;4.504;2023-06-14T08:27:06;25.14;40.49
71173;DHT22;58875;51.996;4.504;2023-06-14T08:29:33;25.05;39.07
71173;DHT22;58875;51.996;4.504;2023-06-14T08:31:58;24.78;41.69
71173;DHT22;58875;51.996;4.504;2023-06-14T08:34:24;25.11;39.14
71173;DHT22;58875;51.996;4.504;2023-06-14T08:36:52;25.19;39.00
71173;DHT22;58875;51.996;4.504;2023-06-14T08:39:18;25.35;38.67
71173;DHT22;58875;51.996;4.504;2023-06-14T08:41:47;25.64;38.12
71173;DHT22;58875;51.996;4.504;2023-06-14T08:44:16;25.74;38.03
71173;DHT22;58875;51.996;4.504;2023-06-14T08:46:42;25.27;38.92
71173;DHT22;58875;51.996;4.504;2023-06-14T08:49:11;25.11;39.87
71173;DHT22;58875;51.996;4.504;2023-06-14T08:51:37;25.26;39.27
71173;DHT22;58875;51.996;4.504;2023-06-14T08:54:04;25.25;37.75
71173;DHT22;58875;51.996;4.504;2023-06-14T08:56:32;25.39;38.43
71173;DHT22;58875;51.996;4.504;2023-06-14T08:59:00;25.56;37.22
71173;DHT22;58875;51.996;4.504;2023-06-14T09:01:36;25.81;38.17
71173;DHT22;58875;51.996;4.504;2023-06-14T09:04:03;25.87;37.65
71173;DHT22;58875;51.996;4.504;2023-06-14T09:06:31;25.77;37.90
71173;DHT22;58875;51.996;4.504;2023-06-14T09:08:57;25.98;37.19
71173;DHT22;58875;51.996;4.504;2023-06-14T09:11:23;25.96;36.54
71173;DHT22;58875;51.996;4.504;2023-06-14T09:13:49;26.07;36.21
71173;DHT22;58875;51.996;4.504;2023-06-14T09:16:17;26.20;36.83
71173;DHT22;58875;51.996;4.504;2023-06-14T09:18:44;26.29;36.68
71173;DHT22;58875;51.996;4.504;2023-06-14T09:21:14;26.05;35.57
71173;DHT22;58875;51.996;4.504;2023-06-14T09:23:40;26.25;35.39
71173;DHT22;58875;51.996;4.504;2023-06-14T09:26:13;26.32;35.99
71173;DHT22;58875;51.996;4.504;2023-06-14T09:28:44;26.55;35.97
71173;DHT22;58875;51.996;4.504;2023-06-14T09:31:14;26.80;34.99
71173;DHT22;58875;51.996;4.504;2023-06-14T09:33:48;26.63;34.03
71173;DHT22;58875;51.996;4.504;2023-06-14T09:36:18;26.28;35.29
71173;DHT22;58875;51.996;4.504;2023-06-14T09:38:59;26.39;34.98
71173;DHT22;58875;51.996;4.504;2023-06-14T09:41:36;26.27;35.27
71173;DHT22;58875;51.996;4.504;2023-06-14T09:44:04;26.49;35.26
71173;DHT22;58875;51.996;4.504;2023-06-14T09:46:30;26.59;34.50
71173;DHT22;58875;51.996;4.504;2023-06-14T09:49:00;26.83;34.96
71173;DHT22;58875;51.996;4.504;2023-06-14T09:51:27;26.89;35.02
71173;DHT22;58875;51.996;4.504;2023-06-14T09:53:57;26.79;35.18
71173;DHT22;58875;51.996;4.504;2023-06-14T09:56:28;26.97;35.22
71173;DHT22;58875;51.996;4.504;2023-06-14T09:58:59;26.85;34.28
71173;DHT22;58875;51.996;4.504;2023-06-14T10:01:27;26.82;33.78
71173;DHT22;58875;51.996;4.504;2023-06-14T10:04:04;26.95;33.38
71173;DHT22;58875;51.996;4.504;2023-06-14T10:06:31;27.00;32.75
71173;DHT22;58875;51.996;4.504;2023-06-14T10:08:58;27.14;32.36
71173;DHT22;58875;51.996;4.504;2023-06-14T10:11:27;27.22;32.48
71173;DHT22;58875;51.996;4.504;2023-06-14T10:13:54;26.87;33.12
71173;DHT22;58875;51.996;4.504;2023-06-14T10:16:28;26.55;33.61
71173;DHT22;58875;51.996;4.504;2023-06-14T10:21:57;27.10;32.91
71173;DHT22;58875;51.996;4.504;2023-06-14T10:24:35;27.33;32.08
71173;DHT22;58875;51.996;4.504;2023-06-14T10:27:07;27.55;32.94
71173;DHT22;58875;51.996;4.504;2023-06-14T10:32:27;27.65;29.94
71173;DHT22;58875;51.996;4.504;2023-06-14T10:34:56;27.59;30.83
71173;DHT22;58875;51.996;4.504;2023-06-14T10:37:22;27.89;31.18
71173;DHT22;58875;51.996;4.504;2023-06-14T10:39:47;27.64;29.97
71173;DHT22;58875;51.996;4.504;2023-06-14T10:42:14;27.75;29.95
71173;DHT22;58875;51.996;4.504;2023-06-14T10:44:42;27.69;30.84
71173;DHT22;58875;51.996;4.504;2023-06-14T10:47:32;27.74;29.75
71173;DHT22;58875;51.996;4.504;2023-06-14T10:50:10;27.98;30.95
71173;DHT22;58875;51.996;4.504;2023-06-14T10:52:41;28.33;29.76
71173;DHT22;58875;51.996;4.504;2023-06-14T10:55:15;28.31;29.86
71173;DHT22;58875;51.996;4.504;2023-06-14T10:57:49;28.20;30.15
71173;DHT22;58875;51.996;4.504;2023-06-14T11:00:19;28.39;29.96
71173;DHT22;58875;51.996;4.504;2023-06-14T11:05:50;28.15;29.77
71173;DHT22;58875;51.996;4.504;2023-06-14T11:11:09;27.92;30.46
71173;DHT22;58875;51.996;4.504;2023-06-14T11:13:44;28.08;30.04
71173;DHT22;58875;51.996;4.504;2023-06-14T11:16:12;28.19;31.77
71173;DHT22;58875;51.996;4.504;2023-06-14T11:18:38;28.43;31.67
71173;DHT22;58875;51.996;4.504;2023-06-14T11:21:03;28.73;30.88
71173;DHT22;58875;51.996;4.504;2023-06-14T11:23:29;28.73;30.38
71173;DHT22;58875;51.996;4.504;2023-06-14T11:25:54;28.68;27.92
71173;DHT22;58875;51.996;4.504;2023-06-14T11:28:20;28.57;29.00
71173;DHT22;58875;51.996;4.504;2023-06-14T11:30:47;28.45;29.55
71173;DHT22;58875;51.996;4.504;2023-06-14T11:33:17;28.60;28.67
71173;DHT22;58875;51.996;4.504;2023-06-14T11:35:44;28.10;29.26
71173;DHT22;58875;51.996;4.504;2023-06-14T11:38:10;28.05;29.05
71173;DHT22;58875;51.996;4.504;2023-06-14T11:40:38;28.10;28.53
71173;DHT22;58875;51.996;4.504;2023-06-14T11:43:03;27.94;29.15
71173;DHT22;58875;51.996;4.504;2023-06-14T11:45:30;27.98;28.98
71173;DHT22;58875;51.996;4.504;2023-06-14T11:47:58;28.28;29.07
71173;DHT22;58875;51.996;4.504;2023-06-14T11:50:25;28.55;28.25
71173;DHT22;58875;51.996;4.504;2023-06-14T11:52:54;28.47;27.90
71173;DHT22;58875;51.996;4.504;2023-06-14T11:55:22;28.13;27.69
71173;DHT22;58875;51.996;4.504;2023-06-14T11:57:48;28.35;28.32
71173;DHT22;58875;51.996;4.504;2023-06-14T12:00:14;28.57;28.17
71173;DHT22;58875;51.996;4.504;2023-06-14T12:02:41;28.63;28.24
71173;DHT22;58875;51.996;4.504;2023-06-14T12:05:08;28.84;28.06
71173;DHT22;58875;51.996;4.504;2023-06-14T12:07:39;29.11;28.11
71173;DHT22;58875;51.996;4.504;2023-06-14T12:10:09;29.01;27.15
71173;DHT22;58875;51.996;4.504;2023-06-14T12:12:37;28.86;26.56
71173;DHT22;58875;51.996;4.504;2023-06-14T12:15:07;28.74;28.22
71173;DHT22;58875;51.996;4.504;2023-06-14T12:17:35;29.15;27.79
71173;DHT22;58875;51.996;4.504;2023-06-14T12:20:09;29.29;26.34
71173;DHT22;58875;51.996;4.504;2023-06-14T12:22:36;29.54;27.97
71173;DHT22;58875;51.996;4.504;2023-06-14T12:25:04;29.85;26.60
71173;DHT22;58875;51.996;4.504;2023-06-14T12:27:30;29.82;26.59
71173;DHT22;58875;51.996;4.504;2023-06-14T12:30:02;29.56;27.76
71173;DHT22;58875;51.996;4.504;2023-06-14T12:32:28;29.25;28.01
71173;DHT22;58875;51.996;4.504;2023-06-14T12:34:55;29.27;27.38
71173;DHT22;58875;51.996;4.504;2023-06-14T12:37:20;29.54;27.02
71173;DHT22;58875;51.996;4.504;2023-06-14T12:39:46;29.52;27.29
71173;DHT22;58875;51.996;4.504;2023-06-14T12:42:11;29.55;28.17
71173;DHT22;58875;51.996;4.504;2023-06-14T12:44:40;29.52;28.95
71173;DHT22;58875;51.996;4.504;2023-06-14T12:47:07;29.52;28.21
71173;DHT22;58875;51.996;4.504;2023-06-14T12:49:33;29.21;29.17
71173;DHT22;58875;51.996;4.504;2023-06-14T12:51:59;29.01;27.90
71173;DHT22;58875;51.996;4.504;2023-06-14T12:54:24;28.59;28.99
71173;DHT22;58875;51.996;4.504;2023-06-14T12:56:53;28.52;29.01
71173;DHT22;58875;51.996;4.504;2023-06-14T12:59:20;28.61;29.93
71173;DHT22;58875;51.996;4.504;2023-06-14T13:01:45;28.81;29.29
71173;DHT22;58875;51.996;4.504;2023-06-14T13:04:12;29.07;29.98
71173;DHT22;58875;51.996;4.504;2023-06-14T13:06:38;29.37;28.40
71173;DHT22;58875;51.996;4.504;2023-06-14T13:09:03;29.01;28.52
71173;DHT22;58875;51.996;4.504;2023-06-14T13:11:29;29.11;30.12
71173;DHT22;58875;51.996;4.504;2023-06-14T13:13:58;29.35;28.94
71173;DHT22;58875;51.996;4.504;2023-06-14T13:16:24;29.27;27.74
71173;DHT22;58875;51.996;4.504;2023-06-14T13:18:49;29.12;27.89
71173;DHT22;58875;51.996;4.504;2023-06-14T13:21:15;29.01;28.52
71173;DHT22;58875;51.996;4.504;2023-06-14T13:23:41;28.88;28.12
71173;DHT22;58875;51.996;4.504;2023-06-14T13:26:06;29.03;28.66
71173;DHT22;58875;51.996;4.504;2023-06-14T13:28:32;28.94;28.30
71173;DHT22;58875;51.996;4.504;2023-06-14T13:30:57;28.67;27.83
71173;DHT22;58875;51.996;4.504;2023-06-14T13:33:23;28.70;28.63
71173;DHT22;58875;51.996;4.504;2023-06-14T13:35:49;28.84;28.30
71173;DHT22;58875;51.996;4.504;2023-06-14T13:38:18;28.98;28.60
71173;DHT22;58875;51.996;4.504;2023-06-14T13:40:43;29.22;27.77
71173;DHT22;58875;51.996;4.504;2023-06-14T13:43:09;29.29;28.32
71173;DHT22;58875;51.996;4.504;2023-06-14T13:45:35;29.45;27.39
71173;DHT22;58875;51.996;4.504;2023-06-14T13:48:01;29.14;27.44
71173;DHT22;58875;51.996;4.504;2023-06-14T13:50:26;29.22;29.58
71173;DHT22;58875;51.996;4.504;2023-06-14T13:52:52;29.55;27.47
71173;DHT22;58875;51.996;4.504;2023-06-14T13:55:17;29.18;27.38
71173;DHT22;58875;51.996;4.504;2023-06-14T13:57:43;29.04;27.80
71173;DHT22;58875;51.996;4.504;2023-06-14T14:00:09;29.11;27.71
71173;DHT22;58875;51.996;4.504;2023-06-14T14:02:34;29.19;30.28
71173;DHT22;58875;51.996;4.504;2023-06-14T14:05:00;29.68;28.78
71173;DHT22;58875;51.996;4.504;2023-06-14T14:07:25;29.68;29.39
71173;DHT22;58875;51.996;4.504;2023-06-14T14:09:51;29.72;29.36
71173;DHT22;58875;51.996;4.504;2023-06-14T14:12:18;29.85;30.33
71173;DHT22;58875;51.996;4.504;2023-06-14T14:14:44;29.87;27.97
71173;DHT22;58875;51.996;4.504;2023-06-14T14:17:09;29.69;28.76
71173;DHT22;58875;51.996;4.504;2023-06-14T14:19:35;29.52;28.18
71173;DHT22;58875;51.996;4.504;2023-06-14T14:22:02;29.55;28.59
71173;DHT22;58875;51.996;4.504;2023-06-14T14:24:28;29.35;28.90
71173;DHT22;58875;51.996;4.504;2023-06-14T14:26:53;29.38;29.75
71173;DHT22;58875;51.996;4.504;2023-06-14T14:29:19;29.25;28.57
71173;DHT22;58875;51.996;4.504;2023-06-14T14:31:45;29.01;29.14
71173;DHT22;58875;51.996;4.504;2023-06-14T14:34:11;29.22;28.25
71173;DHT22;58875;51.996;4.504;2023-06-14T14:36:36;29.32;29.88
71173;DHT22;58875;51.996;4.504;2023-06-14T14:39:04;29.65;28.89
71173;DHT22;58875;51.996;4.504;2023-06-14T14:41:29;29.76;28.82
71173;DHT22;58875;51.996;4.504;2023-06-14T14:43:55;29.41;28.31
71173;DHT22;58875;51.996;4.504;2023-06-14T14:46:20;29.51;29.42
71173;DHT22;58875;51.996;4.504;2023-06-14T14:48:46;29.25;28.36
71173;DHT22;58875;51.996;4.504;2023-06-14T14:51:12;29.08;28.80
71173;DHT22;58875;51.996;4.504;2023-06-14T14:53:37;29.24;28.07
71173;DHT22;58875;51.996;4.504;2023-06-14T14:56:03;29.52;29.18
71173;DHT22;58875;51.996;4.504;2023-06-14T14:58:28;29.58;28.60
71173;DHT22;58875;51.996;4.504;2023-06-14T15:00:54;29.49;28.06
71173;DHT22;58875;51.996;4.504;2023-06-14T15:03:20;29.48;28.47
71173;DHT22;58875;51.996;4.504;2023-06-14T15:05:46;29.44;28.58
71173;DHT22;58875;51.996;4.504;2023-06-14T15:08:12;29.28;29.13
71173;DHT22;58875;51.996;4.504;2023-06-14T15:10:38;29.07;28.86
71173;DHT22;58875;51.996;4.504;2023-06-14T15:13:09;29.03;30.03
71173;DHT22;58875;51.996;4.504;2023-06-14T15:15:36;29.10;28.70
71173;DHT22;58875;51.996;4.504;2023-06-14T15:18:02;29.10;29.54
71173;DHT22;58875;51.996;4.504;2023-06-14T15:20:28;29.24;29.39
71173;DHT22;58875;51.996;4.504;2023-06-14T15:22:54;29.08;29.22
71173;DHT22;58875;51.996;4.504;2023-06-14T15:25:28;29.22;29.16
71173;DHT22;58875;51.996;4.504;2023-06-14T15:27:54;29.04;28.50
71173;DHT22;58875;51.996;4.504;2023-06-14T15:30:21;28.87;29.42
71173;DHT22;58875;51.996;4.504;2023-06-14T15:32:47;28.97;29.26
71173;DHT22;58875;51.996;4.504;2023-06-14T15:35:13;29.11;29.44
71173;DHT22;58875;51.996;4.504;2023-06-14T15:37:38;29.19;29.44
71173;DHT22;58875;51.996;4.504;2023-06-14T15:40:05;29.38;28.99
71173;DHT22;58875;51.996;4.504;2023-06-14T15:42:31;29.34;28.23
71173;DHT22;58875;51.996;4.504;2023-06-14T15:44:56;29.38;27.78
71173;DHT22;58875;51.996;4.504;2023-06-14T15:47:22;29.25;27.75